createdAt,value
2019-04-01T00:02:13.049Z,15.23
2019-04-01T00:04:41.051Z,14.43
2019-04-01T00:07:09.104Z,13.90
2019-04-01T00:09:37.317Z,15.30
2019-04-01T00:12:05.278Z,17.00
2019-04-01T00:14:33.295Z,15.13
2019-04-01T00:17:01.443Z,14.77
2019-04-01T00:19:29.504Z,15.57
2019-04-01T00:21:57.704Z,14.17
2019-04-01T00:24:25.584Z,15.07
2019-04-01T00:26:53.646Z,17.20
2019-04-01T00:29:21.620Z,14.93
2019-04-01T00:31:49.752Z,16.40
2019-04-01T00:34:17.963Z,17.33
2019-04-01T00:36:45.970Z,14.50
2019-04-01T00:39:14.004Z,19.17
2019-04-01T00:41:53.015Z,16.37
2019-04-01T00:44:21.019Z,14.10
2019-04-01T00:46:49.069Z,14.80
2019-04-01T00:49:17.064Z,13.53
2019-04-01T00:51:45.167Z,14.20
2019-04-01T00:54:13.205Z,17.27
2019-04-01T00:56:41.110Z,14.37
2019-04-01T00:59:09.101Z,16.87
2019-04-01T01:01:37.148Z,15.03
2019-04-01T01:04:05.174Z,13.80
2019-04-01T01:06:33.196Z,14.10
2019-04-01T01:09:01.290Z,15.33
2019-04-01T01:11:30.990Z,14.63
2019-04-01T01:13:58.812Z,13.90
2019-04-01T01:16:26.633Z,14.83
2019-04-01T01:18:54.859Z,13.90
2019-04-01T01:21:22.866Z,15.57
2019-04-01T01:23:52.075Z,14.73
2019-04-01T01:26:20.033Z,16.30
2019-04-01T01:28:47.920Z,13.83
2019-04-01T01:31:15.761Z,14.43
2019-04-01T01:33:43.724Z,15.20
2019-04-01T01:36:11.463Z,16.27
2019-04-01T01:38:39.383Z,14.93
2019-04-01T01:41:07.339Z,16.40
2019-04-01T01:43:35.328Z,18.00
2019-04-01T01:46:03.265Z,14.63
2019-04-01T01:48:31.319Z,14.77
2019-04-01T01:50:59.315Z,14.73
2019-04-01T01:53:27.337Z,14.17
2019-04-01T01:55:55.266Z,17.60
2019-04-01T01:58:23.361Z,15.27
2019-04-01T02:00:52.696Z,15.03
2019-04-01T02:03:20.757Z,16.93
2019-04-01T02:05:48.553Z,15.20
2019-04-01T02:08:16.540Z,16.10
2019-04-01T02:10:44.508Z,15.87
2019-04-01T02:13:12.506Z,16.50
2019-04-01T02:15:40.501Z,16.30
2019-04-01T02:18:08.544Z,17.37
2019-04-01T02:20:36.644Z,17.83
2019-04-01T02:23:04.574Z,15.07
2019-04-01T02:25:32.643Z,15.90
2019-04-01T02:28:00.634Z,16.13
2019-04-01T02:30:28.625Z,15.77
2019-04-01T02:32:56.580Z,15.23
2019-04-01T02:35:24.466Z,16.33
2019-04-01T02:37:52.387Z,17.33
2019-04-01T02:40:22.186Z,15.10
2019-04-01T02:42:50.431Z,16.90
2019-04-01T02:45:18.304Z,18.73
2019-04-01T02:47:46.319Z,15.80
2019-04-01T02:50:14.374Z,14.67
2019-04-01T02:52:42.259Z,15.77
2019-04-01T02:55:10.555Z,16.23
2019-04-01T02:57:38.639Z,16.90
2019-04-01T03:00:06.836Z,15.63
2019-04-01T03:02:34.993Z,19.50
2019-04-01T03:05:03.274Z,17.53
2019-04-01T03:07:31.273Z,14.10
2019-04-01T03:09:59.615Z,17.03
2019-04-01T03:12:27.603Z,17.77
2019-04-01T03:14:55.790Z,15.83
2019-04-01T03:17:24.052Z,16.77
2019-04-01T03:19:51.940Z,16.57
2019-04-01T03:22:19.987Z,17.67
2019-04-01T03:24:48.115Z,14.60
2019-04-01T03:27:17.403Z,15.50
2019-04-01T03:29:45.862Z,19.23
2019-04-01T03:32:13.944Z,18.93
2019-04-01T03:34:42.169Z,19.80
2019-04-01T03:37:10.451Z,18.07
2019-04-01T03:39:38.510Z,24.10
2019-04-01T03:42:06.511Z,18.53
2019-04-01T03:44:34.339Z,18.50
2019-04-01T03:47:03.251Z,17.87
2019-04-01T03:49:31.129Z,17.27
2019-04-01T03:51:59.194Z,16.77
2019-04-01T03:54:27.217Z,15.33
2019-04-01T03:56:55.233Z,16.00
2019-04-01T03:59:23.158Z,15.50
2019-04-01T04:01:51.366Z,17.93
2019-04-01T04:04:19.142Z,21.40
2019-04-01T04:06:47.217Z,21.40
2019-04-01T04:09:15.495Z,19.17
2019-04-01T04:11:43.368Z,23.03
2019-04-01T04:14:11.280Z,20.57
2019-04-01T04:16:39.308Z,16.10
2019-04-01T04:19:07.475Z,20.90
2019-04-01T04:21:35.283Z,16.90
2019-04-01T04:24:03.413Z,16.77
2019-04-01T04:26:31.278Z,16.13
2019-04-01T04:28:59.361Z,16.00
2019-04-01T04:31:27.188Z,24.07
2019-04-01T04:33:55.172Z,17.60
2019-04-01T04:36:22.952Z,20.83
2019-04-01T04:38:51.053Z,26.10
2019-04-01T04:41:18.819Z,18.47
2019-04-01T04:43:47.784Z,25.03
2019-04-01T04:46:15.569Z,23.13
2019-04-01T04:48:43.523Z,23.53
2019-04-01T04:51:11.447Z,22.80
2019-04-01T04:53:39.466Z,20.67
2019-04-01T04:56:07.343Z,19.90
2019-04-01T04:58:35.141Z,20.77
2019-04-01T05:01:03.286Z,20.60
2019-04-01T05:03:31.264Z,18.23
2019-04-01T05:05:59.093Z,27.60
2019-04-01T05:08:27.419Z,25.67
2019-04-01T05:10:55.260Z,21.73
2019-04-01T05:13:23.364Z,22.47
2019-04-01T05:15:51.350Z,21.80
2019-04-01T05:18:19.462Z,23.97
2019-04-01T05:20:47.341Z,25.67
2019-04-01T05:23:15.231Z,27.20
2019-04-01T05:25:43.367Z,16.10
2019-04-01T05:28:11.535Z,16.67
2019-04-01T05:30:40.633Z,16.73
2019-04-01T05:33:10.967Z,21.60
2019-04-01T05:35:39.223Z,21.33
2019-04-01T05:38:07.236Z,29.20
2019-04-01T05:40:35.241Z,24.17
2019-04-01T05:43:03.255Z,21.10
2019-04-01T05:45:31.226Z,19.83
2019-04-01T05:47:59.034Z,22.13
2019-04-01T05:50:27.081Z,22.73
2019-04-01T05:52:55.252Z,22.77
2019-04-01T05:55:25.132Z,18.70
2019-04-01T05:57:53.125Z,23.70
2019-04-01T06:00:27.122Z,18.70
2019-04-01T06:02:54.880Z,20.70
2019-04-01T06:05:22.886Z,23.20
2019-04-01T06:07:50.720Z,25.23
2019-04-01T06:10:18.819Z,26.83
2019-04-01T06:12:47.832Z,18.73
2019-04-01T06:15:16.696Z,24.57
2019-04-01T06:17:44.655Z,24.40
2019-04-01T06:20:12.739Z,21.40
2019-04-01T06:22:40.655Z,20.20
2019-04-01T06:25:08.869Z,25.07
2019-04-01T06:27:36.798Z,24.27
2019-04-01T06:30:05.133Z,30.33
2019-04-01T06:32:33.387Z,24.30
2019-04-01T06:35:01.394Z,21.47
2019-04-01T06:37:29.363Z,25.47
2019-04-01T06:39:57.406Z,17.93
2019-04-01T06:42:25.775Z,23.70
2019-04-01T06:44:54.009Z,26.17
2019-04-01T06:47:22.073Z,18.70
2019-04-01T06:49:50.211Z,22.87
2019-04-01T06:52:18.161Z,22.03
2019-04-01T06:54:46.345Z,21.97
2019-04-01T06:57:14.226Z,22.60
2019-04-01T06:59:42.087Z,20.83
2019-04-01T07:02:10.041Z,18.53
2019-04-01T07:04:37.919Z,23.37
2019-04-01T07:07:18.302Z,23.47
2019-04-01T07:09:35.488Z,24.23
2019-04-01T07:12:03.478Z,21.23
2019-04-01T07:14:31.373Z,26.23
2019-04-01T07:16:59.316Z,19.10
2019-04-01T07:19:27.060Z,23.70
2019-04-01T07:21:55.198Z,24.07
2019-04-01T07:24:23.291Z,22.63
2019-04-01T07:26:51.354Z,32.03
2019-04-01T07:29:19.526Z,20.37
2019-04-01T07:31:47.431Z,21.30
2019-04-01T07:34:15.289Z,20.20
2019-04-01T07:36:43.324Z,21.43
2019-04-01T07:39:11.305Z,29.47
2019-04-01T07:41:39.427Z,22.17
2019-04-01T07:44:07.315Z,19.73
2019-04-01T07:46:35.352Z,24.97
2019-04-01T07:49:03.222Z,20.30
2019-04-01T07:51:32.324Z,15.90
2019-04-01T07:54:00.290Z,22.77
2019-04-01T07:56:28.272Z,16.33
2019-04-01T07:58:56.366Z,17.60
2019-04-01T08:01:24.399Z,15.23
2019-04-01T08:03:52.312Z,19.97
2019-04-01T08:06:20.224Z,13.90
2019-04-01T08:08:48.263Z,14.53
2019-04-01T08:11:16.269Z,14.90
2019-04-01T08:13:44.262Z,19.37
2019-04-01T08:16:12.596Z,18.33
2019-04-01T08:18:40.459Z,14.60
2019-04-01T08:21:08.728Z,15.50
2019-04-01T08:23:36.647Z,20.23
2019-04-01T08:26:04.611Z,16.40
2019-04-01T08:28:32.624Z,17.15
2019-04-01T08:31:00.543Z,23.35
2019-04-01T08:33:28.428Z,28.38
2019-04-01T08:35:56.387Z,23.77
2019-04-01T08:38:25.403Z,22.48
2019-04-01T08:40:53.341Z,19.65
2019-04-01T08:43:21.211Z,16.48
2019-04-01T08:45:50.528Z,22.95
2019-04-01T08:48:18.329Z,17.32
2019-04-01T08:50:47.415Z,16.45
2019-04-01T08:53:15.319Z,16.97
2019-04-01T08:55:43.222Z,16.90
2019-04-01T08:58:11.238Z,16.17
2019-04-01T09:00:39.297Z,16.50
2019-04-01T09:03:07.034Z,16.65
2019-04-01T09:05:35.274Z,16.12
2019-04-01T09:08:03.312Z,19.07
2019-04-01T09:10:31.650Z,17.37
2019-04-01T09:12:59.858Z,17.92
2019-04-01T09:15:27.948Z,17.62
2019-04-01T09:17:56.075Z,18.62
2019-04-01T09:20:24.174Z,18.87
2019-04-01T09:22:52.310Z,19.57
2019-04-01T09:25:20.498Z,18.75
2019-04-01T09:27:48.559Z,18.12
2019-04-01T09:30:18.652Z,18.95
2019-04-01T09:32:46.836Z,19.12
2019-04-01T09:35:15.935Z,19.42
2019-04-01T09:37:44.177Z,19.05
2019-04-01T09:40:12.250Z,18.15
2019-04-01T09:42:40.155Z,18.57
2019-04-01T09:45:08.388Z,18.05
2019-04-01T09:47:36.298Z,18.77
2019-04-01T09:50:05.039Z,19.82
2019-04-01T09:52:32.977Z,19.07
2019-04-01T09:55:01.037Z,17.17
2019-04-01T09:57:29.967Z,17.87
2019-04-01T09:59:57.908Z,16.12
2019-04-01T10:02:31.987Z,17.40
2019-04-01T10:04:55.984Z,17.57
2019-04-01T10:07:24.105Z,18.00
2019-04-01T10:09:52.113Z,16.77
2019-04-01T10:12:20.269Z,17.65
2019-04-01T10:14:48.297Z,16.87
2019-04-01T10:17:16.337Z,16.50
2019-04-01T10:19:45.458Z,17.52
2019-04-01T10:22:13.534Z,17.07
2019-04-01T10:24:41.472Z,16.45
2019-04-01T10:27:10.616Z,17.73
2019-04-01T10:29:39.087Z,18.10
2019-04-01T10:32:07.069Z,15.78
2019-04-01T10:34:35.364Z,17.00
2019-04-01T10:37:03.703Z,16.30
2019-04-01T10:39:31.584Z,17.17
2019-04-01T10:41:59.549Z,17.32
2019-04-01T10:44:28.491Z,16.95
2019-04-01T10:46:56.576Z,17.65
2019-04-01T10:49:24.582Z,18.75
2019-04-01T10:51:52.744Z,16.80
2019-04-01T10:54:20.777Z,17.42
2019-04-01T10:56:48.779Z,16.55
2019-04-01T10:59:16.656Z,18.65
2019-04-01T11:01:44.860Z,16.97
2019-04-01T11:04:13.020Z,17.32
2019-04-01T11:06:41.021Z,17.57
2019-04-01T11:09:10.052Z,16.35
2019-04-01T11:11:38.033Z,18.85
2019-04-01T11:14:06.209Z,18.45
2019-04-01T11:16:34.118Z,17.60
2019-04-01T11:19:02.423Z,16.20
2019-04-01T11:21:30.318Z,17.45
2019-04-01T11:23:58.197Z,15.78
2019-04-01T11:26:26.445Z,17.07
2019-04-01T11:28:54.552Z,16.25
2019-04-01T11:31:22.635Z,15.30
2019-04-01T11:33:50.638Z,15.58
2019-04-01T11:36:18.803Z,15.95
2019-04-01T11:38:46.765Z,16.10
2019-04-01T11:41:14.960Z,15.48
2019-04-01T11:43:43.291Z,14.05
2019-04-01T11:46:12.652Z,15.75
2019-04-01T11:48:41.472Z,15.38
2019-04-01T11:51:09.585Z,15.55
2019-04-01T11:53:37.675Z,18.07
2019-04-01T11:56:05.768Z,16.48
2019-04-01T11:58:33.791Z,15.85
2019-04-01T12:01:02.180Z,16.93
2019-04-01T12:03:30.398Z,15.10
2019-04-01T12:05:58.400Z,14.38
2019-04-01T12:08:26.495Z,15.35
2019-04-01T12:10:54.551Z,16.05
2019-04-01T12:13:22.498Z,13.88
2019-04-01T12:15:50.566Z,13.30
2019-04-01T12:18:18.504Z,13.32
2019-04-01T12:20:46.615Z,13.68
2019-04-01T12:23:14.542Z,15.13
2019-04-01T12:25:42.881Z,14.55
2019-04-01T12:28:10.888Z,14.58
2019-04-01T12:30:38.786Z,16.55
2019-04-01T12:33:06.699Z,14.60
2019-04-01T12:35:34.828Z,15.15
2019-04-01T12:38:02.862Z,13.43
2019-04-01T12:40:30.894Z,13.35
2019-04-01T12:42:59.246Z,14.18
2019-04-01T12:45:27.424Z,14.05
2019-04-01T12:47:55.318Z,13.35
2019-04-01T12:50:23.369Z,14.75
2019-04-01T12:52:51.355Z,12.98
2019-04-01T12:55:19.446Z,13.53
2019-04-01T12:57:48.569Z,12.37
2019-04-01T13:00:17.586Z,12.98
2019-04-01T13:02:45.699Z,12.47
2019-04-01T13:05:13.737Z,13.70
2019-04-01T13:07:42.614Z,14.18
2019-04-01T13:10:10.722Z,13.10
2019-04-01T13:12:38.712Z,13.20
2019-04-01T13:15:06.771Z,13.20
2019-04-01T13:17:35.035Z,12.33
2019-04-01T13:20:03.350Z,13.30
2019-04-01T13:22:31.443Z,13.70
2019-04-01T13:25:01.544Z,13.15
2019-04-01T13:27:29.781Z,15.05
2019-04-01T13:29:57.653Z,13.10
2019-04-01T13:32:25.625Z,13.62
2019-04-01T13:34:53.501Z,13.62
2019-04-01T13:37:21.511Z,12.40
2019-04-01T13:39:49.466Z,14.53
2019-04-01T13:42:17.355Z,13.23
2019-04-01T13:44:45.393Z,14.03
2019-04-01T13:47:13.134Z,14.13
2019-04-01T13:49:40.999Z,13.00
2019-04-01T13:52:08.879Z,12.87
2019-04-01T13:54:37.032Z,12.83
2019-04-01T13:57:04.883Z,12.03
2019-04-01T13:59:32.872Z,12.77
2019-04-01T14:02:00.727Z,11.53
2019-04-01T14:04:28.495Z,12.20
2019-04-01T14:06:56.635Z,12.70
2019-04-01T14:09:24.537Z,15.63
2019-04-01T14:11:52.605Z,15.93
2019-04-01T14:14:20.491Z,13.53
2019-04-01T14:16:48.552Z,14.00
2019-04-01T14:19:16.623Z,12.77
2019-04-01T14:21:44.610Z,13.53
2019-04-01T14:24:12.568Z,13.33
2019-04-01T14:26:41.092Z,14.37
2019-04-01T14:29:09.133Z,14.17
2019-04-01T14:31:37.204Z,12.37
2019-04-01T14:34:06.383Z,13.47
2019-04-01T14:36:34.557Z,13.13
2019-04-01T14:39:03.652Z,13.87
2019-04-01T14:41:32.057Z,13.60
2019-04-01T14:44:00.133Z,14.90
2019-04-01T14:46:28.271Z,14.70
2019-04-01T14:49:00.154Z,15.30
2019-04-01T14:51:26.298Z,14.87
2019-04-01T14:53:54.254Z,12.07
2019-04-01T14:56:22.140Z,13.60
2019-04-01T14:58:50.189Z,14.07
2019-04-01T15:01:18.436Z,14.03
2019-04-01T15:03:46.371Z,14.73
2019-04-01T15:06:14.354Z,14.43
2019-04-01T15:08:42.379Z,14.57
2019-04-01T15:11:12.223Z,14.87
2019-04-01T15:13:40.798Z,14.33
2019-04-01T15:16:09.026Z,17.40
2019-04-01T15:18:37.060Z,20.03
2019-04-01T15:21:05.063Z,13.57
2019-04-01T15:23:33.260Z,15.60
2019-04-01T15:26:01.161Z,15.67
2019-04-01T15:28:29.132Z,14.37
2019-04-01T15:30:56.964Z,14.50
2019-04-01T15:33:24.880Z,19.80
2019-04-01T15:35:52.852Z,20.17
2019-04-01T15:38:23.880Z,14.67
2019-04-01T15:40:51.864Z,14.80
2019-04-01T15:43:19.815Z,14.93
2019-04-01T15:45:47.794Z,14.80
2019-04-01T15:48:15.617Z,14.53
2019-04-01T15:50:43.517Z,14.47
2019-04-01T15:53:11.410Z,15.00
2019-04-01T15:55:39.425Z,16.07
2019-04-01T15:58:07.278Z,13.40
2019-04-01T16:00:35.300Z,15.10
2019-04-01T16:03:03.510Z,15.60
2019-04-01T16:05:31.716Z,13.87
2019-04-01T16:07:59.626Z,15.53
2019-04-01T16:10:29.328Z,15.93
2019-04-01T16:12:57.457Z,13.87
2019-04-01T16:15:25.691Z,16.93
2019-04-01T16:17:54.259Z,15.73
2019-04-01T16:20:22.197Z,15.03
2019-04-01T16:22:50.429Z,16.40
2019-04-01T16:25:18.624Z,15.43
2019-04-01T16:27:46.661Z,14.40
2019-04-01T16:30:15.169Z,15.70
2019-04-01T16:32:43.190Z,15.27
2019-04-01T16:35:11.337Z,17.10
2019-04-01T16:37:39.311Z,14.53
2019-04-01T16:40:07.503Z,19.53
2019-04-01T16:42:35.770Z,15.43
2019-04-01T16:45:05.273Z,17.03
2019-04-01T16:47:33.497Z,20.03
2019-04-01T16:50:01.815Z,16.37
2019-04-01T16:52:30.866Z,15.67
2019-04-01T16:55:00.622Z,19.63
2019-04-01T16:57:28.422Z,15.03
2019-04-01T16:59:57.139Z,15.97
2019-04-01T17:02:25.121Z,18.63
2019-04-01T17:04:53.009Z,16.17
2019-04-01T17:07:21.046Z,15.53
2019-04-01T17:09:49.106Z,15.90
2019-04-01T17:12:17.178Z,16.53
2019-04-01T17:14:45.086Z,16.30
2019-04-01T17:17:13.500Z,18.60
2019-04-01T17:19:41.686Z,17.67
2019-04-01T17:22:11.445Z,20.60
2019-04-01T17:24:39.639Z,19.00
2019-04-01T17:27:10.398Z,19.13
2019-04-01T17:29:38.480Z,20.10
2019-04-01T17:32:06.439Z,19.13
2019-04-01T17:34:34.461Z,16.10
2019-04-01T17:37:02.441Z,16.73
2019-04-01T17:39:30.458Z,20.83
2019-04-01T17:41:58.347Z,17.13
2019-04-01T17:44:26.312Z,17.80
2019-04-01T17:46:54.409Z,17.10
2019-04-01T17:49:22.467Z,18.70
2019-04-01T17:51:53.699Z,17.50
2019-04-01T17:54:20.265Z,16.97
2019-04-01T17:56:48.474Z,21.20
2019-04-01T17:59:16.554Z,18.13
2019-04-01T18:01:44.623Z,18.90
2019-04-01T18:04:12.879Z,17.07
2019-04-01T18:06:41.010Z,20.60
2019-04-01T18:09:08.908Z,16.80
2019-04-01T18:11:37.004Z,18.20
2019-04-01T18:14:04.983Z,18.13
2019-04-01T18:16:32.905Z,19.23
2019-04-01T18:19:00.836Z,19.20
2019-04-01T18:21:28.825Z,21.53
2019-04-01T18:23:56.865Z,20.23
2019-04-01T18:26:24.875Z,18.73
2019-04-01T18:28:52.875Z,17.03
2019-04-01T18:31:20.762Z,19.97
2019-04-01T18:33:55.997Z,18.43
2019-04-01T18:36:18.760Z,16.83
2019-04-01T18:38:46.704Z,21.80
2019-04-01T18:41:14.679Z,21.13
2019-04-01T18:43:42.728Z,20.40
2019-04-01T18:46:10.979Z,20.30
2019-04-01T18:48:39.812Z,20.73
2019-04-01T18:51:07.797Z,20.83
2019-04-01T18:53:36.308Z,22.40
2019-04-01T18:56:04.557Z,17.23
2019-04-01T18:58:32.643Z,17.43
2019-04-01T19:01:00.700Z,18.60
2019-04-01T19:03:28.967Z,18.43
2019-04-01T19:05:56.897Z,24.50
2019-04-01T19:08:24.753Z,23.13
2019-04-01T19:11:02.105Z,21.63
2019-04-01T19:13:22.723Z,20.70
2019-04-01T19:15:52.580Z,18.87
2019-04-01T19:18:21.445Z,19.43
2019-04-01T19:20:56.172Z,17.77
2019-04-01T19:23:19.551Z,18.10
2019-04-01T19:25:47.747Z,20.17
2019-04-01T19:28:16.040Z,16.23
2019-04-01T19:30:44.045Z,20.90
2019-04-01T19:33:12.096Z,16.37
2019-04-01T19:35:39.877Z,16.93
2019-04-01T19:38:08.146Z,15.73
2019-04-01T19:40:36.126Z,16.40
2019-04-01T19:43:04.220Z,17.83
2019-04-01T19:45:32.428Z,18.57
2019-04-01T19:48:00.452Z,15.40
2019-04-01T19:50:28.841Z,17.47
2019-04-01T19:52:56.925Z,16.77
2019-04-01T19:55:25.014Z,15.03
2019-04-01T19:57:53.128Z,20.40
2019-04-01T20:00:27.784Z,18.93
2019-04-01T20:02:50.974Z,18.77
2019-04-01T20:05:20.188Z,18.97
2019-04-01T20:07:49.085Z,18.03
2019-04-01T20:10:17.579Z,19.93
2019-04-01T20:12:45.886Z,19.27
2019-04-01T20:15:13.848Z,20.17
2019-04-01T20:17:41.812Z,19.53
2019-04-01T20:20:10.360Z,19.70
2019-04-01T20:22:38.365Z,21.37
2019-04-01T20:25:07.060Z,22.33
2019-04-01T20:27:34.947Z,25.87
2019-04-01T20:30:03.541Z,22.23
2019-04-01T20:32:32.792Z,20.33
2019-04-01T20:35:01.026Z,20.97
2019-04-01T20:37:29.545Z,24.90
2019-04-01T20:39:57.672Z,20.80
2019-04-01T20:42:25.767Z,19.33
2019-04-01T20:44:54.099Z,19.90
2019-04-01T20:47:22.336Z,18.33
2019-04-01T20:49:50.427Z,21.37
2019-04-01T20:52:18.551Z,19.53
2019-04-01T20:54:46.527Z,19.23
2019-04-01T20:57:14.497Z,24.73
2019-04-01T20:59:42.672Z,23.20
2019-04-01T21:02:10.683Z,25.07
2019-04-01T21:04:38.770Z,24.23
2019-04-01T21:07:06.664Z,28.00
2019-04-01T21:09:34.813Z,24.57
2019-04-01T21:12:03.173Z,24.87
2019-04-01T21:14:32.306Z,22.83
2019-04-01T21:17:00.543Z,24.80
2019-04-01T21:19:30.997Z,25.77
2019-04-01T21:21:58.998Z,22.80
2019-04-01T21:24:26.939Z,22.10
2019-04-01T21:26:55.102Z,21.60
2019-04-01T21:29:23.850Z,25.93
2019-04-01T21:31:51.920Z,21.63
2019-04-01T21:34:20.187Z,24.47
2019-04-01T21:36:48.233Z,21.43
2019-04-01T21:39:16.327Z,21.33
2019-04-01T21:41:44.419Z,20.10
2019-04-01T21:44:12.415Z,19.43
2019-04-01T21:46:40.287Z,22.27
2019-04-01T21:49:08.415Z,22.13
2019-04-01T21:51:36.303Z,20.77
2019-04-01T21:54:04.277Z,21.20
2019-04-01T21:56:32.160Z,21.87
2019-04-01T21:59:00.238Z,22.73
2019-04-01T22:01:28.300Z,21.33
2019-04-01T22:03:56.310Z,23.90
2019-04-01T22:06:24.143Z,27.10
2019-04-01T22:08:52.131Z,22.90
2019-04-01T22:11:19.787Z,20.83
2019-04-01T22:13:47.863Z,23.43
2019-04-01T22:16:15.716Z,21.43
2019-04-01T22:18:43.594Z,21.80
2019-04-01T22:21:11.736Z,21.43
2019-04-01T22:23:39.724Z,21.37
2019-04-01T22:26:08.727Z,20.80
2019-04-01T22:28:36.671Z,19.90
2019-04-01T22:31:04.518Z,18.70
2019-04-01T22:33:32.581Z,20.27
2019-04-01T22:36:00.555Z,19.47
2019-04-01T22:38:29.694Z,20.30
2019-04-01T22:40:57.616Z,19.63
2019-04-01T22:43:25.835Z,20.67
2019-04-01T22:45:53.945Z,21.77
2019-04-01T22:48:22.064Z,20.67
2019-04-01T22:50:50.090Z,20.73
2019-04-01T22:53:18.138Z,20.83
2019-04-01T22:55:46.259Z,20.03
2019-04-01T22:58:14.267Z,19.50
2019-04-01T23:00:42.073Z,22.27
2019-04-01T23:03:10.440Z,20.40
2019-04-01T23:05:39.249Z,21.67
2019-04-01T23:08:07.388Z,21.53
2019-04-01T23:10:35.142Z,20.87
2019-04-01T23:13:03.118Z,21.17
2019-04-01T23:15:31.053Z,19.33
2019-04-01T23:17:59.058Z,20.23
2019-04-01T23:20:26.921Z,19.87
2019-04-01T23:22:55.100Z,21.20
2019-04-01T23:25:23.314Z,21.20
2019-04-01T23:27:51.260Z,19.67
2019-04-01T23:30:20.422Z,20.13
2019-04-01T23:32:48.783Z,19.70
2019-04-01T23:35:16.741Z,20.53
2019-04-01T23:37:44.799Z,21.97
2019-04-01T23:40:12.852Z,21.67
2019-04-01T23:42:40.998Z,20.73
2019-04-01T23:45:09.919Z,23.70
2019-04-01T23:47:37.941Z,21.50
2019-04-01T23:50:06.861Z,21.93
2019-04-01T23:52:35.911Z,19.63
2019-04-01T23:55:04.002Z,19.93
2019-04-01T23:57:32.103Z,18.90
